Time,TemperatureF,DewpointF,PressureIn,WindDirection,WindDirectionDegrees,WindSpeedMPH,WindSpeedGustMPH,Humidity,HourlyPrecipIn,Conditions,Clouds,dailyrainin,SoftwareType,DateUTC
2013-01-11 00:05:00,37.2,28.4,30.55,North,0,0.0,0.7,61,0.00,,,0.00,fowsr,2013-01-11 05:05:00,
2013-01-11 00:10:00,37.2,28.4,30.56,North,0,0.0,0.0,61,0.00,,,0.00,fowsr,2013-01-11 05:10:00,
2013-01-11 00:15:00,37.6,29.9,30.55,NE,45,0.0,0.7,65,0.00,,,0.00,fowsr,2013-01-11 05:15:00,
2013-01-11 00:20:00,37.8,30.0,30.55,NE,45,0.0,0.0,65,0.00,,,0.00,fowsr,2013-01-11 05:20:00,
2013-01-11 00:25:00,37.9,30.2,30.55,North,0,0.0,0.0,65,0.00,,,0.00,fowsr,2013-01-11 05:25:00,
2013-01-11 00:30:00,37.9,29.9,30.56,North,0,0.0,0.0,64,0.00,,,0.00,fowsr,2013-01-11 05:30:00,
2013-01-11 00:35:00,37.9,29.9,30.56,SW,225,0.0,0.0,64,0.00,,,0.00,fowsr,2013-01-11 05:35:00,
2013-01-11 00:40:00,37.9,29.9,30.55,SW,225,0.0,0.0,64,0.00,,,0.00,fowsr,2013-01-11 05:40:00,
2013-01-11 00:45:00,37.9,29.9,30.55,SW,225,0.0,0.0,64,0.00,,,0.00,fowsr,2013-01-11 05:45:00,
2013-01-11 00:50:00,37.9,30.2,30.55,SW,225,0.0,0.0,65,0.00,,,0.00,fowsr,2013-01-11 05:50:00,
2013-01-11 00:55:00,37.9,30.2,30.55,SW,225,0.0,0.0,65,0.00,,,0.00,fowsr,2013-01-11 05:55:00,
2013-01-11 01:00:00,37.8,30.0,30.54,North,0,0.7,1.6,65,0.00,,,0.00,fowsr,2013-01-11 06:00:00,
2013-01-11 01:10:00,37.4,29.7,30.55,SW,225,0.0,0.0,65,0.00,,,0.00,fowsr,2013-01-11 06:10:00,
2013-01-11 01:15:00,37.2,28.4,30.54,SW,225,0.0,0.0,61,0.00,,,0.00,fowsr,2013-01-11 06:15:00,
2013-01-11 01:20:00,37.0,28.2,30.54,SW,225,0.0,0.0,61,0.00,,,0.00,fowsr,2013-01-11 06:20:00,
2013-01-11 01:25:00,36.7,27.9,30.54,SW,225,0.0,0.0,61,0.00,,,0.00,fowsr,2013-01-11 06:25:00,
2013-01-11 01:30:00,36.5,28.0,30.54,SW,225,0.7,1.6,62,0.00,,,0.00,fowsr,2013-01-11 06:30:00,
2013-01-11 01:35:00,36.3,27.8,30.54,SW,225,0.0,0.0,62,0.00,,,0.00,fowsr,2013-01-11 06:35:00,
2013-01-11 01:40:00,36.1,27.7,30.54,NE,45,0.0,0.7,62,0.00,,,0.00,fowsr,2013-01-11 06:40:00,
2013-01-11 01:45:00,36.0,27.5,30.54,SW,225,0.0,0.7,62,0.00,,,0.00,fowsr,2013-01-11 06:45:00,
2013-01-11 01:50:00,36.0,27.8,30.54,SW,225,0.0,0.0,63,0.00,,,0.00,fowsr,2013-01-11 06:50:00,
2013-01-11 01:55:00,36.0,27.8,30.54,SW,225,0.0,0.0,63,0.00,,,0.00,fowsr,2013-01-11 06:55:00,
2013-01-11 02:00:00,35.8,27.6,30.54,SW,225,0.0,0.0,63,0.00,,,0.00,fowsr,2013-01-11 07:00:00,
2013-01-11 02:05:00,35.8,27.6,30.53,SW,225,0.0,0.0,63,0.00,,,0.00,fowsr,2013-01-11 07:05:00,
2013-01-11 02:10:00,35.8,27.9,30.54,North,0,0.7,1.6,64,0.00,,,0.00,fowsr,2013-01-11 07:10:00,
2013-01-11 02:15:00,35.8,27.9,30.54,SW,225,0.0,0.7,64,0.00,,,0.00,fowsr,2013-01-11 07:15:00,
2013-01-11 02:20:00,35.8,27.9,30.54,SW,225,0.0,0.0,64,0.00,,,0.00,fowsr,2013-01-11 07:20:00,
2013-01-11 02:25:00,35.6,27.7,30.54,SW,225,0.0,0.0,64,0.00,,,0.00,fowsr,2013-01-11 07:25:00,
2013-01-11 02:30:00,35.4,27.8,30.54,North,0,0.7,1.6,65,0.00,,,0.00,fowsr,2013-01-11 07:30:00,
2013-01-11 02:35:00,35.4,27.8,30.53,North,0,0.0,0.0,65,0.00,,,0.00,fowsr,2013-01-11 07:35:00,
2013-01-11 02:40:00,35.4,28.1,30.53,North,0,0.0,0.7,66,0.00,,,0.00,fowsr,2013-01-11 07:40:00,
2013-01-11 02:45:00,35.4,28.1,30.53,North,0,0.0,0.7,66,0.00,,,0.00,fowsr,2013-01-11 07:45:00,
2013-01-11 02:50:00,35.4,28.1,30.52,North,0,0.0,0.7,66,0.00,,,0.00,fowsr,2013-01-11 07:50:00,
2013-01-11 02:55:00,35.2,27.9,30.53,North,0,0.0,0.0,66,0.00,,,0.00,fowsr,2013-01-11 07:55:00,
2013-01-11 03:00:00,35.2,27.9,30.52,North,0,0.7,1.6,66,0.00,,,0.00,fowsr,2013-01-11 08:00:00,
2013-01-11 03:05:00,35.2,27.9,30.52,North,0,0.7,1.6,66,0.00,,,0.00,fowsr,2013-01-11 08:05:00,
2013-01-11 03:10:00,35.2,28.2,30.52,North,0,0.0,0.0,67,0.00,,,0.00,fowsr,2013-01-11 08:10:00,
2013-01-11 03:15:00,35.2,28.2,30.52,North,0,0.7,1.6,67,0.00,,,0.00,fowsr,2013-01-11 08:15:00,
2013-01-11 03:20:00,35.2,28.2,30.51,North,0,0.7,1.6,67,0.00,,,0.00,fowsr,2013-01-11 08:20:00,
2013-01-11 03:25:00,35.4,28.6,30.51,North,0,0.7,1.6,68,0.00,,,0.00,fowsr,2013-01-11 08:25:00,
2013-01-11 03:30:00,35.4,28.6,30.50,North,0,0.7,1.6,68,0.00,,,0.00,fowsr,2013-01-11 08:30:00,
2013-01-11 03:35:00,35.6,28.8,30.50,North,0,0.0,0.7,68,0.00,,,0.00,fowsr,2013-01-11 08:35:00,
2013-01-11 03:40:00,35.8,29.2,30.49,NE,45,0.7,1.6,69,0.00,,,0.00,fowsr,2013-01-11 08:40:00,
2013-01-11 03:45:00,36.0,29.4,30.49,North,0,0.0,0.7,69,0.00,,,0.00,fowsr,2013-01-11 08:45:00,
2013-01-11 03:50:00,36.3,29.7,30.49,North,0,0.0,1.6,69,0.00,,,0.00,fowsr,2013-01-11 08:50:00,
2013-01-11 03:55:00,36.5,30.1,30.49,NE,45,0.0,0.0,70,0.00,,,0.00,fowsr,2013-01-11 08:55:00,
2013-01-11 04:00:00,36.7,30.3,30.50,NE,45,0.0,0.0,70,0.00,,,0.00,fowsr,2013-01-11 09:00:00,
2013-01-11 04:05:00,36.9,30.7,30.50,NW,315,0.0,0.0,71,0.00,,,0.00,fowsr,2013-01-11 09:05:00,
2013-01-11 04:10:00,37.0,30.9,30.50,SW,225,0.0,0.0,71,0.00,,,0.00,fowsr,2013-01-11 09:10:00,
2013-01-11 04:15:00,37.2,31.1,30.50,SW,225,0.0,0.0,71,0.00,,,0.00,fowsr,2013-01-11 09:15:00,
2013-01-11 04:20:00,37.0,30.9,30.50,SW,225,0.0,0.0,71,0.00,,,0.00,fowsr,2013-01-11 09:20:00,
2013-01-11 04:25:00,36.9,30.7,30.50,SW,225,0.0,0.0,71,0.00,,,0.00,fowsr,2013-01-11 09:25:00,
2013-01-11 04:30:00,36.7,30.5,30.50,SW,225,0.0,0.0,71,0.00,,,0.00,fowsr,2013-01-11 09:30:00,
2013-01-11 04:35:00,36.5,30.4,30.50,SW,225,0.0,0.0,71,0.00,,,0.00,fowsr,2013-01-11 09:35:00,
2013-01-11 04:40:00,36.3,30.2,30.50,North,0,0.7,1.6,71,0.00,,,0.00,fowsr,2013-01-11 09:40:00,
2013-01-11 04:45:00,36.3,30.4,30.49,North,0,0.0,0.0,72,0.00,,,0.00,fowsr,2013-01-11 09:45:00,
2013-01-11 04:50:00,36.1,30.3,30.49,North,0,0.7,1.6,72,0.00,,,0.00,fowsr,2013-01-11 09:50:00,
2013-01-11 04:55:00,36.1,30.3,30.49,NW,315,0.0,0.7,72,0.00,,,0.00,fowsr,2013-01-11 09:55:00,
2013-01-11 05:00:00,36.3,30.4,30.49,North,0,0.0,0.0,72,0.00,,,0.00,fowsr,2013-01-11 10:00:00,
2013-01-11 05:05:00,36.3,30.4,30.49,North,0,0.7,1.6,72,0.00,,,0.00,fowsr,2013-01-11 10:05:00,
2013-01-11 05:10:00,36.3,30.7,30.48,North,0,0.0,0.0,73,0.00,,,0.00,fowsr,2013-01-11 10:10:00,
2013-01-11 05:20:00,36.1,30.5,30.49,North,0,0.0,0.0,73,0.00,,,0.00,fowsr,2013-01-11 10:20:00,
2013-01-11 05:25:00,36.1,30.5,30.50,North,0,0.0,0.0,73,0.00,,,0.00,fowsr,2013-01-11 10:25:00,
2013-01-11 05:30:00,36.1,30.5,30.49,North,0,0.0,0.0,73,0.00,,,0.00,fowsr,2013-01-11 10:30:00,
2013-01-11 05:35:00,36.1,30.5,30.50,North,0,0.0,0.0,73,0.00,,,0.00,fowsr,2013-01-11 10:35:00,
2013-01-11 05:40:00,36.1,30.5,30.50,North,0,0.0,0.0,73,0.00,,,0.00,fowsr,2013-01-11 10:40:00,
2013-01-11 05:45:00,36.1,30.5,30.49,North,0,0.7,1.6,73,0.00,,,0.00,fowsr,2013-01-11 10:45:00,
2013-01-11 05:50:00,36.3,30.9,30.49,North,0,0.0,0.0,74,0.00,,,0.00,fowsr,2013-01-11 10:50:00,
2013-01-11 05:55:00,36.3,30.9,30.50,North,0,0.0,0.0,74,0.00,,,0.00,fowsr,2013-01-11 10:55:00,
2013-01-11 06:00:00,36.5,31.1,30.50,North,0,0.0,0.0,74,0.00,,,0.00,fowsr,2013-01-11 11:00:00,
2013-01-11 06:05:00,36.7,31.3,30.49,SW,225,0.0,0.0,74,0.00,,,0.00,fowsr,2013-01-11 11:05:00,
2013-01-11 06:10:00,36.7,31.3,30.50,North,0,0.7,1.6,74,0.00,,,0.00,fowsr,2013-01-11 11:10:00,
2013-01-11 06:15:00,36.9,31.4,30.49,SW,225,0.0,0.7,74,0.00,,,0.00,fowsr,2013-01-11 11:15:00,
2013-01-11 06:20:00,36.9,31.4,30.49,North,0,0.7,1.6,74,0.00,,,0.00,fowsr,2013-01-11 11:20:00,
2013-01-11 06:25:00,36.9,31.7,30.49,NW,315,0.0,1.6,75,0.00,,,0.00,fowsr,2013-01-11 11:25:00,
2013-01-11 06:30:00,36.9,31.7,30.49,North,0,0.7,1.6,75,0.00,,,0.00,fowsr,2013-01-11 11:30:00,
2013-01-11 06:40:00,36.7,31.5,30.50,SW,225,0.0,0.0,75,0.00,,,0.00,fowsr,2013-01-11 11:40:00,
2013-01-11 06:45:00,36.7,31.5,30.50,North,0,0.0,0.7,75,0.00,,,0.00,fowsr,2013-01-11 11:45:00,
2013-01-11 06:50:00,36.7,31.5,30.50,North,0,0.7,1.6,75,0.00,,,0.00,fowsr,2013-01-11 11:50:00,
2013-01-11 06:55:00,36.5,31.3,30.50,North,0,0.0,0.7,75,0.00,,,0.00,fowsr,2013-01-11 11:55:00,
2013-01-11 07:00:00,36.5,31.3,30.50,NW,315,0.0,0.7,75,0.00,,,0.00,fowsr,2013-01-11 12:00:00,
2013-01-11 07:05:00,36.5,31.6,30.50,North,0,0.7,1.6,76,0.00,,,0.00,fowsr,2013-01-11 12:05:00,
2013-01-11 07:10:00,36.3,31.4,30.50,North,0,0.0,0.7,76,0.00,,,0.00,fowsr,2013-01-11 12:10:00,
2013-01-11 07:15:00,36.5,31.6,30.50,North,0,0.7,2.2,76,0.00,,,0.00,fowsr,2013-01-11 12:15:00,
2013-01-11 07:20:00,36.5,31.8,30.50,North,0,0.7,1.6,77,0.00,,,0.00,fowsr,2013-01-11 12:20:00,
2013-01-11 07:25:00,36.7,32.0,30.49,North,0,0.7,1.6,77,0.00,,,0.00,fowsr,2013-01-11 12:25:00,
2013-01-11 07:30:00,36.7,32.2,30.50,NE,45,0.7,1.6,78,0.00,,,0.00,fowsr,2013-01-11 12:30:00,
2013-01-11 07:35:00,36.7,32.2,30.49,North,0,0.0,0.7,78,0.00,,,0.00,fowsr,2013-01-11 12:35:00,
2013-01-11 07:40:00,36.7,32.2,30.49,North,0,0.7,1.6,78,0.00,,,0.00,fowsr,2013-01-11 12:40:00,
2013-01-11 07:45:00,36.7,32.2,30.48,North,0,0.0,0.7,78,0.00,,,0.00,fowsr,2013-01-11 12:45:00,
2013-01-11 07:50:00,36.9,32.6,30.48,NE,45,0.7,1.6,79,0.00,,,0.00,fowsr,2013-01-11 12:50:00,
2013-01-11 07:55:00,37.2,32.9,30.47,North,0,0.7,2.2,79,0.00,,,0.00,fowsr,2013-01-11 12:55:00,
2013-01-11 08:05:00,38.3,35.3,30.45,NE,45,1.6,2.2,85,0.00,,,0.00,fowsr,2013-01-11 13:05:00,
2013-01-11 08:10:00,38.8,35.8,30.45,NE,45,1.6,3.1,85,0.00,,,0.00,fowsr,2013-01-11 13:10:00,
2013-01-11 08:15:00,39.6,36.5,30.46,East,90,1.6,2.2,85,0.00,,,0.00,fowsr,2013-01-11 13:15:00,
2013-01-11 08:20:00,40.1,37.1,30.46,East,90,1.6,3.8,85,0.00,,,0.00,fowsr,2013-01-11 13:20:00,
2013-01-11 08:25:00,40.8,37.8,30.47,East,90,0.7,1.6,85,0.00,,,0.00,fowsr,2013-01-11 13:25:00,
2013-01-11 08:30:00,41.5,38.3,30.48,NW,315,0.0,0.7,84,0.00,,,0.00,fowsr,2013-01-11 13:30:00,
2013-01-11 08:35:00,42.1,38.8,30.49,NE,45,0.7,1.6,84,0.00,,,0.00,fowsr,2013-01-11 13:35:00,
2013-01-11 08:40:00,42.8,39.3,30.48,NE,45,2.2,3.8,83,0.00,,,0.00,fowsr,2013-01-11 13:40:00,
2013-01-11 08:45:00,43.2,39.4,30.47,NE,45,2.2,3.8,82,0.00,,,0.00,fowsr,2013-01-11 13:45:00,
2013-01-11 08:50:00,43.5,39.5,30.47,NE,45,0.7,1.6,81,0.00,,,0.00,fowsr,2013-01-11 13:50:00,
2013-01-11 08:55:00,43.7,39.5,30.47,North,0,2.2,3.8,80,0.00,,,0.00,fowsr,2013-01-11 13:55:00,
2013-01-11 09:00:00,44.1,39.6,30.47,East,90,1.6,2.2,79,0.00,,,0.00,fowsr,2013-01-11 14:00:00,
2013-01-11 09:05:00,44.2,39.5,30.48,NE,45,1.6,2.2,78,0.00,,,0.00,fowsr,2013-01-11 14:05:00,
2013-01-11 09:10:00,44.6,39.4,30.47,North,0,1.6,3.1,76,0.00,,,0.00,fowsr,2013-01-11 14:10:00,
2013-01-11 09:15:00,45.0,39.5,30.46,NE,45,2.2,3.1,75,0.00,,,0.00,fowsr,2013-01-11 14:15:00,
2013-01-11 09:20:00,45.1,39.6,30.47,SE,135,1.6,3.1,75,0.00,,,0.00,fowsr,2013-01-11 14:20:00,
2013-01-11 09:25:00,45.3,39.6,30.46,NE,45,1.6,3.1,74,0.00,,,0.00,fowsr,2013-01-11 14:25:00,
2013-01-11 09:30:00,45.7,39.7,30.45,East,90,3.1,4.5,73,0.00,,,0.00,fowsr,2013-01-11 14:30:00,
2013-01-11 09:35:00,45.9,39.8,30.46,East,90,1.6,3.1,73,0.00,,,0.00,fowsr,2013-01-11 14:35:00,
2013-01-11 09:40:00,46.2,39.9,30.46,North,0,3.1,6.9,72,0.00,,,0.00,fowsr,2013-01-11 14:40:00,
2013-01-11 09:45:00,46.4,39.6,30.45,NE,45,2.2,3.1,70,0.00,,,0.00,fowsr,2013-01-11 14:45:00,
2013-01-11 09:50:00,46.6,39.7,30.45,NE,45,3.8,5.4,70,0.00,,,0.00,fowsr,2013-01-11 14:50:00,
2013-01-11 09:55:00,46.6,39.5,30.44,North,0,4.5,6.0,69,0.00,,,0.00,fowsr,2013-01-11 14:55:00,
2013-01-11 10:00:00,46.8,39.6,30.44,NE,45,3.8,5.4,69,0.00,,,0.00,fowsr,2013-01-11 15:00:00,
2013-01-11 10:05:00,46.8,39.6,30.45,NE,45,3.1,4.5,69,0.00,,,0.00,fowsr,2013-01-11 15:05:00,
2013-01-11 10:10:00,46.9,39.8,30.44,NE,45,3.8,6.9,69,0.00,,,0.00,fowsr,2013-01-11 15:10:00,
2013-01-11 10:15:00,47.1,40.0,30.44,NE,45,3.8,6.0,69,0.00,,,0.00,fowsr,2013-01-11 15:15:00,
2013-01-11 10:20:00,47.3,40.1,30.44,NE,45,5.4,7.6,69,0.00,,,0.00,fowsr,2013-01-11 15:20:00,
2013-01-11 10:25:00,47.3,40.1,30.43,East,90,0.7,2.2,69,0.00,,,0.00,fowsr,2013-01-11 15:25:00,
2013-01-11 10:30:00,47.7,40.5,30.43,East,90,3.1,3.8,69,0.00,,,0.00,fowsr,2013-01-11 15:30:00,
2013-01-11 10:35:00,47.7,40.5,30.43,North,0,3.8,5.4,69,0.00,,,0.00,fowsr,2013-01-11 15:35:00,
2013-01-11 10:40:00,47.7,40.2,30.44,North,0,2.2,3.8,68,0.00,,,0.00,fowsr,2013-01-11 15:40:00,
2013-01-11 10:45:00,47.8,40.7,30.44,SE,135,0.7,3.1,69,0.00,,,0.00,fowsr,2013-01-11 15:45:00,
2013-01-11 10:50:00,47.8,40.7,30.44,NE,45,2.2,3.1,69,0.00,,,0.00,fowsr,2013-01-11 15:50:00,
2013-01-11 10:55:00,48.0,40.6,30.44,East,90,1.6,2.2,68,0.00,,,0.00,fowsr,2013-01-11 15:55:00,
2013-01-11 11:00:00,48.2,40.4,30.43,NE,45,2.2,4.5,67,0.00,,,0.00,fowsr,2013-01-11 16:00:00,
2013-01-11 11:05:00,48.2,40.4,30.42,North,0,3.8,5.4,67,0.00,,,0.00,fowsr,2013-01-11 16:05:00,
2013-01-11 11:10:00,48.0,40.6,30.40,North,0,3.1,5.4,68,0.00,,,0.00,fowsr,2013-01-11 16:10:00,
2013-01-11 11:15:00,48.4,40.6,30.41,NE,45,3.1,4.5,67,0.00,,,0.00,fowsr,2013-01-11 16:15:00,
2013-01-11 11:20:00,48.9,41.1,30.41,NE,45,2.2,3.8,67,0.00,,,0.00,fowsr,2013-01-11 16:20:00,
2013-01-11 11:25:00,49.1,41.0,30.42,East,90,0.7,1.6,66,0.00,,,0.00,fowsr,2013-01-11 16:25:00,
2013-01-11 11:30:00,49.1,41.0,30.41,NE,45,1.6,3.1,66,0.00,,,0.00,fowsr,2013-01-11 16:30:00,
2013-01-11 11:35:00,49.3,41.2,30.40,East,90,2.2,4.5,66,0.00,,,0.00,fowsr,2013-01-11 16:35:00,
2013-01-11 11:40:00,49.3,41.2,30.40,NE,45,3.1,5.4,66,0.00,,,0.00,fowsr,2013-01-11 16:40:00,
2013-01-11 11:45:00,49.3,41.2,30.41,North,0,1.6,3.8,66,0.00,,,0.00,fowsr,2013-01-11 16:45:00,
2013-01-11 11:50:00,49.3,41.2,30.40,East,90,3.8,5.4,66,0.00,,,0.00,fowsr,2013-01-11 16:50:00,
2013-01-11 11:55:00,49.5,41.6,30.39,NE,45,4.5,6.9,67,0.00,,,0.00,fowsr,2013-01-11 16:55:00,
2013-01-11 12:00:00,49.3,41.5,30.39,NE,45,3.8,4.5,67,0.00,,,0.00,fowsr,2013-01-11 17:00:00,
2013-01-11 12:05:00,49.5,41.6,30.38,North,0,4.5,6.0,67,0.00,,,0.00,fowsr,2013-01-11 17:05:00,
2013-01-11 12:10:00,49.6,41.8,30.38,NNE,22,2.2,3.8,67,0.00,,,0.00,fowsr,2013-01-11 17:10:00,
2013-01-11 12:15:00,49.8,42.0,30.38,NE,45,0.7,1.6,67,0.00,,,0.00,fowsr,2013-01-11 17:15:00,
2013-01-11 12:20:00,50.0,42.1,30.37,NE,45,4.5,6.9,67,0.00,,,0.00,fowsr,2013-01-11 17:20:00,
2013-01-11 12:25:00,49.6,42.1,30.37,NE,45,2.2,3.1,68,0.00,,,0.00,fowsr,2013-01-11 17:25:00,
2013-01-11 12:30:00,49.5,41.9,30.36,NE,45,1.6,2.2,68,0.00,,,0.00,fowsr,2013-01-11 17:30:00,
2013-01-11 12:35:00,49.5,42.2,30.37,East,90,1.6,3.8,69,0.00,,,0.00,fowsr,2013-01-11 17:35:00,
2013-01-11 12:40:00,49.3,42.3,30.37,NE,45,2.2,3.1,70,0.00,,,0.00,fowsr,2013-01-11 17:40:00,
2013-01-11 12:45:00,49.1,42.7,30.37,NE,45,3.1,3.8,72,0.00,,,0.00,fowsr,2013-01-11 17:45:00,
2013-01-11 12:50:00,48.7,42.6,30.36,NE,45,4.5,5.4,73,0.00,,,0.00,fowsr,2013-01-11 17:50:00,
2013-01-11 12:55:00,48.6,42.7,30.35,East,90,3.8,6.9,74,0.00,,,0.00,fowsr,2013-01-11 17:55:00,
2013-01-11 13:00:00,48.4,42.8,30.35,NE,45,1.6,3.8,75,0.00,,,0.00,fowsr,2013-01-11 18:00:00,
2013-01-11 13:05:00,48.2,42.8,30.34,NNE,22,3.8,4.5,76,0.00,,,0.00,fowsr,2013-01-11 18:05:00,
2013-01-11 13:10:00,48.0,42.9,30.35,SE,135,0.7,2.2,77,0.00,,,0.00,fowsr,2013-01-11 18:10:00,
2013-01-11 13:15:00,48.2,43.1,30.35,North,0,1.6,3.1,77,0.00,,,0.00,fowsr,2013-01-11 18:15:00,
2013-01-11 13:20:00,48.2,43.1,30.34,NE,45,2.2,3.8,77,0.00,,,0.00,fowsr,2013-01-11 18:20:00,
2013-01-11 13:25:00,48.0,43.4,30.34,NE,45,3.1,3.8,79,0.00,,,0.00,fowsr,2013-01-11 18:25:00,
2013-01-11 13:30:00,48.0,43.4,30.33,North,0,3.1,4.5,79,0.00,,,0.00,fowsr,2013-01-11 18:30:00,
2013-01-11 13:35:00,47.8,43.5,30.32,NE,45,2.2,3.1,80,0.00,,,0.00,fowsr,2013-01-11 18:35:00,
2013-01-11 13:40:00,48.0,43.7,30.32,NE,45,3.8,7.6,80,0.00,,,0.00,fowsr,2013-01-11 18:40:00,
2013-01-11 13:45:00,48.2,43.6,30.32,East,90,2.2,3.1,79,0.00,,,0.00,fowsr,2013-01-11 18:45:00,
2013-01-11 13:50:00,48.2,43.6,30.33,SE,135,2.2,4.5,79,0.00,,,0.00,fowsr,2013-01-11 18:50:00,
2013-01-11 13:55:00,48.4,43.8,30.33,NE,45,0.7,1.6,79,0.00,,,0.00,fowsr,2013-01-11 18:55:00,
2013-01-11 14:00:00,48.4,43.8,30.33,East,90,0.7,2.2,79,0.00,,,0.00,fowsr,2013-01-11 19:00:00,
2013-01-11 14:05:00,48.4,43.8,30.32,East,90,1.6,2.2,79,0.00,,,0.00,fowsr,2013-01-11 19:05:00,
2013-01-11 14:15:00,48.2,43.8,30.32,East,90,1.6,3.8,80,0.00,,,0.00,fowsr,2013-01-11 19:15:00,
2013-01-11 14:20:00,48.2,43.8,30.31,East,90,0.7,1.6,80,0.00,,,0.00,fowsr,2013-01-11 19:20:00,
2013-01-11 14:25:00,48.2,44.1,30.31,North,0,1.6,2.2,81,0.00,,,0.00,fowsr,2013-01-11 19:25:00,
2013-01-11 14:30:00,48.4,44.5,30.31,NE,45,2.2,3.1,82,0.00,,,0.00,fowsr,2013-01-11 19:30:00,
2013-01-11 14:35:00,48.4,44.5,30.30,NE,45,1.6,3.8,82,0.00,,,0.00,fowsr,2013-01-11 19:35:00,
2013-01-11 14:40:00,48.4,44.7,30.30,NE,45,3.1,4.5,83,0.00,,,0.00,fowsr,2013-01-11 19:40:00,
2013-01-11 14:45:00,48.2,44.8,30.30,NE,45,3.1,3.8,84,0.00,,,0.00,fowsr,2013-01-11 19:45:00,
2013-01-11 14:50:00,48.2,44.8,30.29,NE,45,2.2,3.1,84,0.00,,,0.00,fowsr,2013-01-11 19:50:00,
2013-01-11 14:55:00,48.2,44.8,30.29,East,90,2.2,3.8,84,0.00,,,0.00,fowsr,2013-01-11 19:55:00,
2013-01-11 15:00:00,48.2,44.8,30.28,North,0,2.2,3.8,84,0.00,,,0.00,fowsr,2013-01-11 20:00:00,
2013-01-11 15:05:00,48.4,45.2,30.28,East,90,1.6,3.1,85,0.01,,,0.01,fowsr,2013-01-11 20:05:00,
2013-01-11 15:10:00,48.4,45.2,30.27,NE,45,0.7,2.2,85,0.01,,,0.01,fowsr,2013-01-11 20:10:00,
2013-01-11 15:15:00,48.4,45.2,30.27,NE,45,1.6,4.5,85,0.01,,,0.01,fowsr,2013-01-11 20:15:00,
2013-01-11 15:20:00,48.2,45.0,30.27,NE,45,1.6,3.8,85,0.01,,,0.01,fowsr,2013-01-11 20:20:00,
2013-01-11 15:25:00,48.2,45.0,30.27,North,0,1.6,3.8,85,0.01,,,0.01,fowsr,2013-01-11 20:25:00,
2013-01-11 15:30:00,48.4,45.2,30.27,East,90,3.1,6.9,85,0.01,,,0.01,fowsr,2013-01-11 20:30:00,
2013-01-11 15:35:00,48.4,45.4,30.27,East,90,0.7,2.2,86,0.01,,,0.01,fowsr,2013-01-11 20:35:00,
2013-01-11 15:40:00,48.6,45.6,30.26,NE,45,1.6,3.1,86,0.01,,,0.01,fowsr,2013-01-11 20:40:00,
2013-01-11 15:45:00,48.6,45.6,30.27,East,90,0.7,1.6,86,0.01,,,0.01,fowsr,2013-01-11 20:45:00,
2013-01-11 15:50:00,48.6,45.6,30.28,East,90,0.7,1.6,86,0.01,,,0.01,fowsr,2013-01-11 20:50:00,
2013-01-11 15:55:00,48.7,45.8,30.28,SE,135,0.7,1.6,86,0.01,,,0.01,fowsr,2013-01-11 20:55:00,
2013-01-11 16:00:00,48.7,45.8,30.27,NE,45,0.7,1.6,86,0.01,,,0.01,fowsr,2013-01-11 21:00:00,
2013-01-11 16:05:00,48.7,45.8,30.27,East,90,0.7,1.6,86,0.01,,,0.01,fowsr,2013-01-11 21:05:00,
2013-01-11 16:10:00,48.7,45.8,30.27,East,90,0.7,1.6,86,0.00,,,0.01,fowsr,2013-01-11 21:10:00,
2013-01-11 16:15:00,48.7,45.8,30.26,East,90,2.2,4.5,86,0.00,,,0.01,fowsr,2013-01-11 21:15:00,
2013-01-11 16:25:00,48.7,45.8,30.26,East,90,2.2,4.5,86,0.00,,,0.01,fowsr,2013-01-11 21:25:00,
2013-01-11 16:30:00,48.7,45.8,30.26,SE,135,3.1,3.8,86,0.00,,,0.01,fowsr,2013-01-11 21:30:00,
2013-01-11 16:35:00,48.6,45.6,30.25,East,90,2.2,3.8,86,0.00,,,0.01,fowsr,2013-01-11 21:35:00,
2013-01-11 16:40:00,48.6,45.8,30.26,North,0,3.1,6.0,87,0.00,,,0.01,fowsr,2013-01-11 21:40:00,
2013-01-11 16:45:00,48.7,46.0,30.24,NE,45,3.8,5.4,87,0.00,,,0.01,fowsr,2013-01-11 21:45:00,
2013-01-11 16:50:00,48.7,46.0,30.24,East,90,0.7,2.2,87,0.00,,,0.01,fowsr,2013-01-11 21:50:00,
2013-01-11 16:55:00,48.7,46.0,30.24,East,90,0.7,2.2,87,0.00,,,0.01,fowsr,2013-01-11 21:55:00,
2013-01-11 17:00:00,48.7,46.0,30.24,NE,45,1.6,3.1,87,0.00,,,0.01,fowsr,2013-01-11 22:00:00,
2013-01-11 17:05:00,48.9,46.2,30.24,NE,45,0.7,2.2,87,0.00,,,0.01,fowsr,2013-01-11 22:05:00,
2013-01-11 17:10:00,48.9,46.4,30.23,East,90,2.2,3.8,88,0.00,,,0.01,fowsr,2013-01-11 22:10:00,
2013-01-11 17:15:00,49.1,46.6,30.24,SE,135,2.2,3.1,88,0.00,,,0.01,fowsr,2013-01-11 22:15:00,
2013-01-11 17:20:00,49.1,46.6,30.23,NE,45,2.2,6.0,88,0.01,,,0.02,fowsr,2013-01-11 22:20:00,
2013-01-11 17:25:00,49.1,46.6,30.23,East,90,3.1,6.0,88,0.01,,,0.02,fowsr,2013-01-11 22:25:00,
2013-01-11 17:35:00,49.1,46.6,30.22,NE,45,1.6,3.8,88,0.01,,,0.02,fowsr,2013-01-11 22:35:00,
2013-01-11 17:40:00,49.1,46.8,30.22,NE,45,3.1,4.5,89,0.01,,,0.02,fowsr,2013-01-11 22:40:00,
2013-01-11 17:45:00,49.3,47.0,30.22,South,180,1.6,3.1,89,0.01,,,0.02,fowsr,2013-01-11 22:45:00,
2013-01-11 17:50:00,49.3,47.2,30.22,NE,45,1.6,3.8,90,0.01,,,0.02,fowsr,2013-01-11 22:50:00,
2013-01-11 18:00:00,49.6,47.8,30.22,NE,45,3.8,8.3,91,0.01,,,0.02,fowsr,2013-01-11 23:00:00,
2013-01-11 18:05:00,49.8,47.9,30.22,NNE,22,2.2,4.5,91,0.01,,,0.02,fowsr,2013-01-11 23:05:00,
2013-01-11 18:10:00,49.8,47.9,30.21,East,90,1.6,3.1,91,0.01,,,0.02,fowsr,2013-01-11 23:10:00,
2013-01-11 18:15:00,49.8,47.9,30.21,SE,135,1.6,3.8,91,0.01,,,0.02,fowsr,2013-01-11 23:15:00,
2013-01-11 18:20:00,50.0,48.1,30.20,SE,135,2.2,3.1,91,0.01,,,0.02,fowsr,2013-01-11 23:20:00,
2013-01-11 18:30:00,50.0,48.1,30.19,NE,45,0.7,2.2,91,0.00,,,0.02,fowsr,2013-01-11 23:30:00,
2013-01-11 18:35:00,50.0,48.3,30.19,North,0,3.8,6.0,92,0.00,,,0.02,fowsr,2013-01-11 23:35:00,
2013-01-11 18:45:00,50.2,48.5,30.19,NE,45,2.2,3.8,92,0.00,,,0.02,fowsr,2013-01-11 23:45:00,
2013-01-11 18:50:00,50.2,48.7,30.18,SE,135,2.2,3.8,93,0.00,,,0.02,fowsr,2013-01-11 23:50:00,
2013-01-11 18:55:00,50.5,49.1,30.18,East,90,2.2,4.5,93,0.00,,,0.02,fowsr,2013-01-11 23:55:00,
2013-01-11 19:05:00,51.1,49.6,30.17,East,90,3.1,3.8,93,0.01,,,0.04,fowsr,2013-01-12 00:05:00,
2013-01-11 19:10:00,51.3,50.0,30.17,SE,135,2.2,4.5,94,0.01,,,0.04,fowsr,2013-01-12 00:10:00,
2013-01-11 19:15:00,51.3,50.0,30.17,NE,45,3.8,13.0,94,0.01,,,0.04,fowsr,2013-01-12 00:15:00,
2013-01-11 19:20:00,51.4,50.2,30.17,East,90,3.1,3.8,94,0.01,,,0.04,fowsr,2013-01-12 00:20:00,
2013-01-11 19:25:00,51.6,50.4,30.17,East,90,2.2,4.5,94,0.01,,,0.04,fowsr,2013-01-12 00:25:00,
2013-01-11 19:30:00,51.8,50.3,30.16,East,90,2.2,4.5,93,0.01,,,0.04,fowsr,2013-01-12 00:30:00,
2013-01-11 19:35:00,52.0,50.5,30.16,SE,135,3.1,6.0,93,0.01,,,0.04,fowsr,2013-01-12 00:35:00,
2013-01-11 19:40:00,52.2,50.7,30.15,South,180,3.1,5.4,93,0.01,,,0.04,fowsr,2013-01-12 00:40:00,
2013-01-11 19:45:00,52.3,50.9,30.15,SE,135,2.2,4.5,93,0.01,,,0.04,fowsr,2013-01-12 00:45:00,
2013-01-11 19:50:00,52.3,51.1,30.15,East,90,3.8,6.0,94,0.01,,,0.04,fowsr,2013-01-12 00:50:00,
2013-01-11 19:55:00,52.5,51.3,30.14,East,90,3.8,4.5,94,0.02,,,0.05,fowsr,2013-01-12 00:55:00,
2013-01-11 20:00:00,52.5,51.0,30.14,SE,135,3.1,5.4,93,0.02,,,0.05,fowsr,2013-01-12 01:00:00,
2013-01-11 20:05:00,52.3,50.9,30.14,East,90,3.1,4.5,93,0.02,,,0.05,fowsr,2013-01-12 01:05:00,
2013-01-11 20:10:00,52.3,50.9,30.14,SW,225,3.1,5.4,93,0.01,,,0.05,fowsr,2013-01-12 01:10:00,
2013-01-11 20:15:00,52.3,50.9,30.14,East,90,3.1,5.4,93,0.01,,,0.05,fowsr,2013-01-12 01:15:00,
2013-01-11 20:20:00,52.5,51.0,30.14,SE,135,2.2,4.5,93,0.01,,,0.05,fowsr,2013-01-12 01:20:00,
2013-01-11 20:30:00,52.3,50.9,30.14,East,90,3.1,3.8,93,0.01,,,0.05,fowsr,2013-01-12 01:30:00,
2013-01-11 20:35:00,52.3,50.9,30.13,East,90,2.2,3.8,93,0.01,,,0.05,fowsr,2013-01-12 01:35:00,
2013-01-11 20:40:00,52.0,50.5,30.13,SE,135,4.5,6.0,93,0.01,,,0.05,fowsr,2013-01-12 01:40:00,
2013-01-11 20:45:00,51.8,50.3,30.13,SE,135,2.2,3.1,93,0.01,,,0.05,fowsr,2013-01-12 01:45:00,
2013-01-11 20:50:00,51.8,50.3,30.13,SE,135,2.2,3.1,93,0.01,,,0.05,fowsr,2013-01-12 01:50:00,
2013-01-11 21:00:00,51.1,49.6,30.13,SE,135,3.1,3.8,93,0.00,,,0.05,fowsr,2013-01-12 02:00:00,
2013-01-11 21:05:00,51.1,49.6,30.13,SE,135,3.1,3.8,93,0.00,,,0.05,fowsr,2013-01-12 02:05:00,
2013-01-11 21:10:00,50.9,49.4,30.13,SE,135,3.1,5.4,93,0.00,,,0.05,fowsr,2013-01-12 02:10:00,
2013-01-11 21:20:00,50.7,49.3,30.15,SSW,202,3.8,6.0,93,0.00,,,0.05,fowsr,2013-01-12 02:20:00,
2013-01-11 21:25:00,49.5,48.2,30.15,South,180,3.1,5.4,94,0.00,,,0.05,fowsr,2013-01-12 02:25:00,
2013-01-11 21:30:00,49.1,47.9,30.16,South,180,4.5,6.9,94,0.01,,,0.06,fowsr,2013-01-12 02:30:00,
2013-01-11 21:35:00,49.1,47.9,30.15,SW,225,2.2,3.8,94,0.01,,,0.06,fowsr,2013-01-12 02:35:00,
2013-01-11 21:45:00,48.2,46.8,30.15,West,270,3.1,4.5,93,0.01,,,0.06,fowsr,2013-01-12 02:45:00,
2013-01-11 21:50:00,48.2,46.8,30.16,West,270,1.6,3.8,93,0.02,,,0.07,fowsr,2013-01-12 02:50:00,
2013-01-11 22:00:00,47.5,46.3,30.16,NW,315,0.7,1.6,94,0.02,,,0.07,fowsr,2013-01-12 03:00:00,
2013-01-11 22:05:00,46.9,45.7,30.15,West,270,0.7,1.6,94,0.02,,,0.07,fowsr,2013-01-12 03:05:00,
2013-01-11 22:15:00,46.4,45.0,30.14,NW,315,0.7,1.6,93,0.02,,,0.07,fowsr,2013-01-12 03:15:00,
2013-01-11 22:20:00,46.0,44.6,30.15,West,270,0.0,0.7,93,0.02,,,0.07,fowsr,2013-01-12 03:20:00,
2013-01-11 22:25:00,45.9,44.4,30.15,North,0,0.0,1.6,93,0.02,,,0.07,fowsr,2013-01-12 03:25:00,
2013-01-11 22:35:00,45.9,44.4,30.14,NW,315,0.7,1.6,93,0.01,,,0.07,fowsr,2013-01-12 03:35:00,
2013-01-11 22:40:00,45.9,44.7,30.14,North,0,2.2,3.1,94,0.01,,,0.07,fowsr,2013-01-12 03:40:00,
2013-01-11 22:45:00,46.0,44.8,30.14,SE,135,0.7,2.2,94,0.01,,,0.07,fowsr,2013-01-12 03:45:00,
2013-01-11 22:55:00,46.2,45.0,30.14,NW,315,1.6,3.8,94,0.00,,,0.07,fowsr,2013-01-12 03:55:00,
2013-01-11 23:00:00,46.2,45.0,30.13,WNW,292,0.0,1.6,94,0.00,,,0.07,fowsr,2013-01-12 04:00:00,
2013-01-11 23:05:00,46.2,45.0,30.14,WNW,292,0.0,1.6,94,0.00,,,0.07,fowsr,2013-01-12 04:05:00,
2013-01-11 23:10:00,46.4,45.2,30.14,NW,315,1.6,2.2,94,0.00,,,0.07,fowsr,2013-01-12 04:10:00,
2013-01-11 23:15:00,46.4,45.2,30.14,North,0,0.0,0.7,94,0.00,,,0.07,fowsr,2013-01-12 04:15:00,
2013-01-11 23:20:00,46.6,45.4,30.14,NW,315,0.0,1.6,94,0.00,,,0.07,fowsr,2013-01-12 04:20:00,
2013-01-11 23:25:00,46.6,45.4,30.13,NW,315,0.0,0.7,94,0.00,,,0.07,fowsr,2013-01-12 04:25:00,
2013-01-11 23:30:00,46.6,45.4,30.13,SE,135,0.0,1.6,94,0.00,,,0.07,fowsr,2013-01-12 04:30:00,
2013-01-11 23:35:00,46.8,45.5,30.13,NW,315,0.0,0.7,94,0.00,,,0.07,fowsr,2013-01-12 04:35:00,
2013-01-11 23:40:00,46.9,45.7,30.13,South,180,0.7,2.2,94,0.00,,,0.07,fowsr,2013-01-12 04:40:00,
2013-01-11 23:45:00,46.9,45.7,30.13,NW,315,0.7,1.6,94,0.00,,,0.07,fowsr,2013-01-12 04:45:00,
2013-01-11 23:50:00,47.1,45.9,30.13,NW,315,1.6,2.2,94,0.00,,,0.07,fowsr,2013-01-12 04:50:00,
2013-01-11 23:55:00,47.1,45.9,30.12,South,180,0.7,1.6,94,0.00,,,0.07,fowsr,2013-01-12 04:55:00,